Chantilly, Virginia
Current Conditions -  °F | °C
As of 12:52 AM on Thursday 23 Oct 2014 (Local Time) from KIAD Reporting Station
Broken Clouds Broken Clouds  
Wind Chill: 50°   Ceiling: 3900
Heat Index: 50°   Visibility: 10mi
Dew Point: 42°   Wind: 17mph
Humidity: 74%   Direction: 310°NW
Pressure: 29.94"   Gusts: NA
Location:  38.88°N, 77.44°W
Report Text: KIAD 230452Z 31015KT 10SM BKN039 10/06 A2994 RMK AO2 SLP139 T01000056 401280100
Loading
Personal Weather Stations






























Interactive Weather Map
Tropical Storm Tracking
New forecast layout! Learn more

10-Day Weather Forecast

Advertisements
Track Severe Weather on mobile